createdAt,value
2023-04-29T00:02:00.735Z,93075.78
2023-04-29T00:05:07.296Z,93086.06
2023-04-29T00:08:11.489Z,93094.00
2023-04-29T00:11:15.497Z,93093.56
2023-04-29T00:14:19.192Z,93094.09
2023-04-29T00:17:22.389Z,93091.00
2023-04-29T00:20:26.413Z,93097.66
2023-04-29T00:23:40.610Z,93094.59
2023-04-29T00:26:43.999Z,93093.22
2023-04-29T00:29:48.060Z,93092.91
2023-04-29T00:32:51.287Z,93089.66
2023-04-29T00:35:55.025Z,93087.53
2023-04-29T00:38:58.919Z,93089.75
2023-04-29T00:42:04.290Z,93095.56
2023-04-29T00:45:09.102Z,93092.50
2023-04-29T00:48:12.963Z,93093.56
2023-04-29T00:51:18.725Z,93087.91
2023-04-29T00:54:22.845Z,93084.91
2023-04-29T00:57:30.407Z,93083.72
2023-04-29T01:00:34.462Z,93086.81
2023-04-29T01:03:38.780Z,93076.19
2023-04-29T01:07:09.067Z,93080.94
2023-04-29T01:10:28.965Z,93076.41
2023-04-29T01:13:43.235Z,93077.41
2023-04-29T01:16:54.199Z,93067.34
2023-04-29T01:19:59.608Z,93070.31
2023-04-29T01:23:03.590Z,93063.09
2023-04-29T01:26:07.413Z,93067.59
2023-04-29T01:29:29.652Z,93069.91
2023-04-29T01:33:10.544Z,93064.72
2023-04-29T01:36:46.723Z,93056.47
2023-04-29T01:40:18.199Z,93056.28
2023-04-29T01:43:35.069Z,93052.50
2023-04-29T01:46:52.701Z,93051.44
2023-04-29T01:49:58.711Z,93052.66
2023-04-29T01:53:03.122Z,93042.88
2023-04-29T01:56:07.891Z,93051.59
2023-04-29T01:59:23.195Z,93045.78
2023-04-29T02:02:50.651Z,93047.91
2023-04-29T02:06:12.970Z,93044.56
2023-04-29T02:09:16.747Z,93045.25
2023-04-29T02:12:26.330Z,93042.56
2023-04-29T02:15:30.675Z,93031.00
2023-04-29T02:18:34.834Z,93029.38
2023-04-29T02:21:37.885Z,93034.00
2023-04-29T02:24:40.869Z,93023.41
2023-04-29T02:27:44.654Z,93023.13
2023-04-29T02:30:48.141Z,93020.25
2023-04-29T02:33:51.823Z,93022.88
2023-04-29T02:36:55.557Z,93008.22
2023-04-29T02:39:58.708Z,93007.22
2023-04-29T02:43:02.186Z,93014.38
2023-04-29T02:53:35.955Z,92997.84
2023-04-29T02:56:39.181Z,92990.00
2023-04-29T02:59:43.779Z,92994.97
2023-04-29T03:02:48.133Z,92997.25
2023-04-29T03:05:51.712Z,92983.69
2023-04-29T03:08:55.462Z,92994.03
2023-04-29T03:11:59.694Z,92977.78
2023-04-29T03:15:02.809Z,92974.34
2023-04-29T03:18:06.786Z,92969.69
2023-04-29T03:21:11.322Z,92978.50
2023-04-29T03:24:16.845Z,92958.38
2023-04-29T03:27:20.921Z,92963.19
2023-04-29T03:30:24.879Z,92965.09
2023-04-29T03:33:32.530Z,92954.78
2023-04-29T03:36:36.046Z,92959.41
2023-04-29T03:39:43.582Z,92956.34
2023-04-29T03:42:47.222Z,92959.03
2023-04-29T03:45:52.761Z,92954.50
2023-04-29T03:48:59.913Z,92949.38
2023-04-29T03:52:05.313Z,92950.16
2023-04-29T03:55:09.674Z,92940.59
2023-04-29T03:58:13.394Z,92936.75
2023-04-29T04:01:18.866Z,92941.44
2023-04-29T04:04:23.209Z,92944.88
2023-04-29T04:07:27.936Z,92941.19
2023-04-29T04:10:49.280Z,92937.91
2023-04-29T04:14:06.742Z,92928.22
2023-04-29T04:17:09.836Z,92939.41
2023-04-29T04:20:14.227Z,92934.56
2023-04-29T04:23:18.327Z,92931.50
2023-04-29T04:26:23.677Z,92932.22
2023-04-29T04:29:55.511Z,92926.69
2023-04-29T04:33:05.036Z,92927.44
2023-04-29T04:36:09.092Z,92912.91
2023-04-29T04:39:13.307Z,92918.19
2023-04-29T04:42:17.255Z,92928.91
2023-04-29T04:45:29.197Z,92924.66
2023-04-29T04:48:32.870Z,92921.09
2023-04-29T04:51:46.118Z,92920.59
2023-04-29T04:54:50.765Z,92910.19
2023-04-29T04:57:59.292Z,92909.31
2023-04-29T05:01:03.528Z,92906.22
2023-04-29T05:04:08.180Z,92893.03
2023-04-29T05:07:12.133Z,92897.31
2023-04-29T05:10:37.653Z,92898.28
2023-04-29T05:13:42.738Z,92895.34
2023-04-29T05:16:47.277Z,92891.09
2023-04-29T05:19:51.872Z,92890.66
2023-04-29T05:22:54.975Z,92898.91
2023-04-29T05:26:00.146Z,92893.38
2023-04-29T05:29:03.984Z,92893.44
2023-04-29T05:32:15.012Z,92884.13
2023-04-29T05:35:18.724Z,92881.75
2023-04-29T05:38:22.183Z,92883.91
2023-04-29T05:41:45.181Z,92884.22
2023-04-29T05:45:08.541Z,92882.03
2023-04-29T05:48:12.014Z,92874.03
2023-04-29T05:51:15.570Z,92870.16
2023-04-29T05:54:19.669Z,92870.50
2023-04-29T05:57:24.089Z,92857.53
2023-04-29T06:00:30.102Z,92873.50
2023-04-29T06:03:42.885Z,92871.44
2023-04-29T06:07:06.024Z,92869.16
2023-04-29T06:10:29.728Z,92858.09
2023-04-29T06:13:33.940Z,92857.44
2023-04-29T06:16:38.294Z,92852.94
2023-04-29T06:19:41.449Z,92859.34
2023-04-29T06:22:46.428Z,92848.88
2023-04-29T06:25:52.845Z,92860.53
2023-04-29T06:28:58.467Z,92855.88
2023-04-29T06:32:02.020Z,92850.09
2023-04-29T06:35:06.001Z,92868.94
2023-04-29T06:38:27.369Z,92847.84
2023-04-29T06:41:38.587Z,92836.34
2023-04-29T06:45:05.906Z,92846.75
2023-04-29T06:48:17.025Z,92829.16
2023-04-29T06:51:23.965Z,92837.53
2023-04-29T06:54:29.484Z,92839.19
2023-04-29T06:57:33.346Z,92836.34
2023-04-29T07:00:37.809Z,92826.81
2023-04-29T07:03:41.787Z,92831.56
2023-04-29T07:06:47.909Z,92826.47
2023-04-29T07:09:53.271Z,92822.47
2023-04-29T07:12:58.198Z,92819.25
2023-04-29T07:16:01.853Z,92819.13
2023-04-29T07:19:05.391Z,92813.78
2023-04-29T07:22:10.019Z,92824.09
2023-04-29T07:25:14.161Z,92812.00
2023-04-29T07:28:17.975Z,92818.53
2023-04-29T07:31:21.910Z,92818.78
2023-04-29T07:34:25.092Z,92810.53
2023-04-29T07:37:30.276Z,92801.94
2023-04-29T07:40:34.344Z,92799.59
2023-04-29T07:43:41.565Z,92786.72
2023-04-29T07:46:46.572Z,92802.72
2023-04-29T07:49:50.473Z,92797.44
2023-04-29T07:52:56.177Z,92801.84
2023-04-29T07:56:00.020Z,92797.13
2023-04-29T07:59:04.365Z,92794.75
2023-04-29T08:02:08.856Z,92784.91
2023-04-29T08:05:12.773Z,92781.94
2023-04-29T08:08:17.117Z,92793.63
2023-04-29T08:11:22.218Z,92788.38
2023-04-29T08:14:25.664Z,92782.47
2023-04-29T08:17:30.370Z,92791.59
2023-04-29T08:20:33.737Z,92782.97
2023-04-29T08:23:36.696Z,92782.50
2023-04-29T08:26:42.075Z,92777.63
2023-04-29T08:29:45.539Z,92788.91
2023-04-29T08:32:49.482Z,92784.78
2023-04-29T08:36:04.224Z,92789.50
2023-04-29T08:39:08.073Z,92785.09
2023-04-29T08:42:11.689Z,92789.91
2023-04-29T08:45:18.388Z,92789.03
2023-04-29T08:48:23.132Z,92792.94
2023-04-29T08:51:27.618Z,92783.41
2023-04-29T08:54:32.249Z,92785.50
2023-04-29T08:57:40.740Z,92780.94
2023-04-29T09:00:45.546Z,92774.97
2023-04-29T09:04:15.889Z,92786.34
2023-04-29T09:07:19.384Z,92779.66
2023-04-29T09:10:22.993Z,92786.09
2023-04-29T09:13:31.691Z,92785.91
2023-04-29T09:16:35.978Z,92781.09
2023-04-29T09:19:39.426Z,92785.13
2023-04-29T09:23:08.623Z,92784.66
2023-04-29T09:26:12.268Z,92779.09
2023-04-29T09:29:17.001Z,92785.25
2023-04-29T09:32:24.197Z,92784.09
2023-04-29T09:35:28.812Z,92783.47
2023-04-29T09:38:32.881Z,92772.81
2023-04-29T09:41:36.379Z,92780.63
2023-04-29T09:44:43.465Z,92784.00
2023-04-29T09:47:47.501Z,92773.53
2023-04-29T09:51:04.917Z,92782.84
2023-04-29T09:54:22.582Z,92779.59
2023-04-29T09:57:44.800Z,92775.19
2023-04-29T10:00:49.249Z,92774.75
2023-04-29T10:03:55.648Z,92771.72
2023-04-29T10:07:01.101Z,92786.53
2023-04-29T10:10:07.353Z,92774.94
2023-04-29T10:13:10.894Z,92768.53
2023-04-29T10:16:29.060Z,92772.19
2023-04-29T10:19:35.896Z,92777.34
2023-04-29T10:22:51.387Z,92781.56
2023-04-29T10:25:56.704Z,92769.13
2023-04-29T10:29:01.954Z,92768.53
2023-04-29T10:32:11.297Z,92770.81
2023-04-29T10:35:17.072Z,92770.84
2023-04-29T10:38:30.509Z,92765.09
2023-04-29T10:41:48.902Z,92767.59
2023-04-29T10:45:33.232Z,92766.13
2023-04-29T10:48:37.634Z,92771.97
2023-04-29T10:51:46.148Z,92776.44
2023-04-29T10:55:05.973Z,92761.88
2023-04-29T10:58:39.457Z,92769.22
2023-04-29T11:01:50.880Z,92762.56
2023-04-29T11:05:11.218Z,92765.56
2023-04-29T11:08:24.220Z,92770.50
2023-04-29T11:11:28.419Z,92772.81
2023-04-29T11:14:33.845Z,92767.91
2023-04-29T11:17:39.071Z,92778.75
2023-04-29T11:21:07.802Z,92773.63
2023-04-29T11:24:13.229Z,92780.97
2023-04-29T11:27:17.949Z,92779.81
2023-04-29T11:30:22.877Z,92778.63
2023-04-29T11:33:30.797Z,92778.19
2023-04-29T11:36:37.108Z,92781.06
2023-04-29T11:39:41.195Z,92781.91
2023-04-29T11:42:50.557Z,92790.63
2023-04-29T11:45:55.134Z,92787.31
2023-04-29T11:49:00.915Z,92781.94
2023-04-29T11:52:05.250Z,92789.38
2023-04-29T11:55:13.023Z,92784.69
2023-04-29T11:58:17.632Z,92784.72
2023-04-29T12:01:22.630Z,92790.13
2023-04-29T12:04:26.993Z,92786.81
2023-04-29T12:07:31.116Z,92784.84
2023-04-29T12:10:37.796Z,92777.47
2023-04-29T12:13:42.111Z,92789.56
2023-04-29T12:16:47.374Z,92788.94
2023-04-29T12:19:51.436Z,92788.94
2023-04-29T12:22:55.411Z,92782.25
2023-04-29T12:26:01.152Z,92779.56
2023-04-29T12:29:05.192Z,92779.59
2023-04-29T12:32:13.529Z,92786.31
2023-04-29T12:35:19.958Z,92777.59
2023-04-29T12:38:25.112Z,92784.25
2023-04-29T12:41:39.894Z,92781.56
2023-04-29T12:44:42.805Z,92786.91
2023-04-29T12:47:47.480Z,92788.91
2023-04-29T12:50:52.703Z,92787.59
2023-04-29T12:53:56.740Z,92790.91
2023-04-29T12:57:00.380Z,92794.25
2023-04-29T13:00:05.155Z,92788.19
2023-04-29T13:03:09.147Z,92787.50
2023-04-29T13:06:13.805Z,92788.16
2023-04-29T13:09:18.801Z,92780.72
2023-04-29T13:12:23.330Z,92783.28
2023-04-29T13:15:27.411Z,92774.50
2023-04-29T13:18:32.270Z,92782.53
2023-04-29T13:21:38.948Z,92779.84
2023-04-29T13:24:43.120Z,92779.84
2023-04-29T13:27:46.210Z,92773.78
2023-04-29T13:30:49.719Z,92775.13
2023-04-29T13:33:54.166Z,92779.13
2023-04-29T13:36:57.665Z,92781.78
2023-04-29T13:40:01.952Z,92781.00
2023-04-29T13:43:07.221Z,92787.22
2023-04-29T13:46:13.372Z,92784.69
2023-04-29T13:49:42.411Z,92781.22
2023-04-29T14:05:08.265Z,92777.28
2023-04-29T14:08:11.722Z,92774.69
2023-04-29T14:11:14.736Z,92782.03
2023-04-29T14:14:18.778Z,92776.22
2023-04-29T14:17:22.268Z,92777.56
2023-04-29T14:20:26.278Z,92782.19
2023-04-29T14:23:29.904Z,92772.59
2023-04-29T14:26:33.977Z,92775.25
2023-04-29T14:29:43.414Z,92769.63
2023-04-29T14:32:47.251Z,92774.72
2023-04-29T14:35:50.618Z,92777.03
2023-04-29T14:38:53.705Z,92777.97
2023-04-29T14:41:57.334Z,92773.13
2023-04-29T14:45:00.269Z,92769.75
2023-04-29T14:48:05.656Z,92765.56
2023-04-29T14:51:09.475Z,92770.78
2023-04-29T14:54:14.257Z,92769.03
2023-04-29T14:57:17.283Z,92761.66
2023-04-29T15:00:22.365Z,92759.19
2023-04-29T15:03:25.805Z,92759.69
2023-04-29T15:06:29.499Z,92752.94
2023-04-29T15:09:32.654Z,92748.78
2023-04-29T15:12:37.013Z,92750.78
2023-04-29T15:15:40.680Z,92751.97
2023-04-29T15:18:45.724Z,92747.19
2023-04-29T15:21:49.604Z,92748.91
2023-04-29T15:24:53.846Z,92743.06
2023-04-29T15:27:56.850Z,92740.38
2023-04-29T15:31:02.731Z,92744.53
2023-04-29T15:34:06.619Z,92746.94
2023-04-29T15:37:10.752Z,92743.25
2023-04-29T15:40:14.610Z,92739.97
2023-04-29T15:43:18.059Z,92733.59
2023-04-29T15:46:22.059Z,92734.84
2023-04-29T15:49:26.153Z,92725.47
2023-04-29T15:52:29.848Z,92724.69
2023-04-29T15:55:36.025Z,92721.22
2023-04-29T15:58:39.343Z,92728.88
2023-04-29T16:01:43.183Z,92724.44
2023-04-29T16:04:47.286Z,92724.94
2023-04-29T16:07:51.380Z,92720.75
2023-04-29T16:10:54.757Z,92718.59
2023-04-29T16:13:57.766Z,92726.91
2023-04-29T16:17:01.648Z,92723.59
2023-04-29T16:20:05.946Z,92719.22
2023-04-29T16:23:10.025Z,92724.44
2023-04-29T16:26:14.206Z,92713.31
2023-04-29T16:29:17.576Z,92711.97
2023-04-29T16:32:21.566Z,92715.66
2023-04-29T16:35:27.279Z,92715.41
2023-04-29T16:38:30.549Z,92704.47
2023-04-29T16:41:35.229Z,92702.81
2023-04-29T16:44:38.832Z,92698.09
2023-04-29T16:47:42.688Z,92692.22
2023-04-29T16:50:46.787Z,92683.41
2023-04-29T16:53:53.438Z,92682.69
2023-04-29T16:56:56.815Z,92683.16
2023-04-29T17:00:00.652Z,92687.03
2023-04-29T17:03:04.878Z,92684.84
2023-04-29T17:06:08.905Z,92685.34
2023-04-29T17:09:12.479Z,92680.50
2023-04-29T17:12:15.829Z,92679.91
2023-04-29T17:15:20.023Z,92676.34
2023-04-29T17:18:23.559Z,92679.72
2023-04-29T17:21:31.408Z,92673.88
2023-04-29T17:24:34.496Z,92677.56
2023-04-29T17:27:38.430Z,92677.19
2023-04-29T17:30:42.286Z,92663.31
2023-04-29T17:33:55.725Z,92664.78
2023-04-29T17:36:58.831Z,92666.91
2023-04-29T17:40:03.048Z,92669.16
2023-04-29T17:43:06.132Z,92669.06
2023-04-29T17:46:09.419Z,92652.19
2023-04-29T17:49:12.544Z,92666.03
2023-04-29T17:52:18.382Z,92671.66
2023-04-29T17:55:22.151Z,92672.31
2023-04-29T17:58:25.219Z,92670.03
2023-04-29T18:01:29.043Z,92674.41
2023-04-29T18:04:33.193Z,92671.88
2023-04-29T18:07:36.946Z,92678.19
2023-04-29T18:10:41.083Z,92677.13
2023-04-29T18:13:44.810Z,92669.22
2023-04-29T18:16:48.572Z,92671.41
2023-04-29T18:19:52.914Z,92673.75
2023-04-29T18:22:56.082Z,92676.69
2023-04-29T18:26:00.365Z,92673.84
2023-04-29T18:29:04.083Z,92668.69
2023-04-29T18:32:08.333Z,92674.84
2023-04-29T18:35:12.192Z,92674.19
2023-04-29T18:38:17.752Z,92667.53
2023-04-29T18:41:21.360Z,92660.97
2023-04-29T18:44:25.661Z,92660.44
2023-04-29T18:47:30.300Z,92651.47
2023-04-29T18:50:33.894Z,92648.97
2023-04-29T18:53:37.944Z,92644.56
2023-04-29T18:56:42.987Z,92639.63
2023-04-29T18:59:46.992Z,92625.03
2023-04-29T19:02:50.944Z,92621.72
2023-04-29T19:05:55.324Z,92623.97
2023-04-29T19:08:59.398Z,92621.91
2023-04-29T19:12:05.108Z,92626.94
2023-04-29T19:15:09.201Z,92634.91
2023-04-29T19:18:14.461Z,92628.56
2023-04-29T19:21:18.913Z,92620.66
2023-04-29T19:24:22.132Z,92614.56
2023-04-29T19:27:25.812Z,92606.78
2023-04-29T19:30:30.155Z,92606.66
2023-04-29T19:33:33.540Z,92598.41
2023-04-29T19:36:36.764Z,92609.31
2023-04-29T19:39:40.562Z,92604.72
2023-04-29T19:42:44.187Z,92602.16
2023-04-29T19:45:48.033Z,92606.75
2023-04-29T19:48:52.072Z,92595.75
2023-04-29T19:51:55.919Z,92602.31
2023-04-29T19:55:00.027Z,92602.03
2023-04-29T19:58:03.445Z,92604.22
2023-04-29T20:01:07.655Z,92618.31
2023-04-29T20:04:12.765Z,92612.19
2023-04-29T20:07:16.918Z,92613.38
2023-04-29T20:10:20.636Z,92615.34
2023-04-29T20:13:24.636Z,92610.06
2023-04-29T20:16:32.112Z,92619.06
2023-04-29T20:19:36.401Z,92623.06
2023-04-29T20:22:40.134Z,92622.28
2023-04-29T20:25:44.668Z,92622.97
2023-04-29T20:28:48.451Z,92619.84
2023-04-29T20:31:52.683Z,92614.66
2023-04-29T20:34:56.651Z,92604.28
2023-04-29T20:38:00.885Z,92596.22
2023-04-29T20:41:08.803Z,92600.47
2023-04-29T20:44:12.958Z,92597.19
2023-04-29T20:47:16.318Z,92583.66
2023-04-29T20:50:20.512Z,92582.22
2023-04-29T20:53:24.227Z,92572.59
2023-04-29T20:56:28.542Z,92576.03
2023-04-29T20:59:33.154Z,92575.50
2023-04-29T21:02:37.237Z,92580.31
2023-04-29T21:05:40.941Z,92572.09
2023-04-29T21:08:45.476Z,92588.47
2023-04-29T21:11:49.351Z,92580.75
2023-04-29T21:14:53.344Z,92591.06
2023-04-29T21:17:57.299Z,92595.03
2023-04-29T21:21:01.025Z,92600.91
2023-04-29T21:24:04.908Z,92593.78
2023-04-29T21:27:09.019Z,92601.16
2023-04-29T21:30:12.778Z,92605.75
2023-04-29T21:33:16.519Z,92610.59
2023-04-29T21:36:20.492Z,92609.66
2023-04-29T21:39:24.261Z,92612.81
2023-04-29T21:42:28.363Z,92620.44
2023-04-29T21:45:32.884Z,92605.13
2023-04-29T21:48:36.716Z,92610.50
2023-04-29T21:51:41.011Z,92608.63
2023-04-29T21:54:45.570Z,92599.97
2023-04-29T21:57:49.419Z,92595.22
2023-04-29T22:01:01.855Z,92594.09
2023-04-29T22:04:06.218Z,92585.97
2023-04-29T22:07:09.786Z,92591.34
2023-04-29T22:10:13.922Z,92598.97
2023-04-29T22:13:17.651Z,92570.75
2023-04-29T22:16:21.776Z,92583.91
2023-04-29T22:19:25.762Z,92580.75
2023-04-29T22:22:29.765Z,92583.66
2023-04-29T22:25:33.676Z,92587.56
2023-04-29T22:28:37.428Z,92585.94
2023-04-29T22:31:41.369Z,92593.50
2023-04-29T22:34:45.770Z,92587.44
2023-04-29T22:37:49.809Z,92590.28
2023-04-29T22:40:54.572Z,92609.53
2023-04-29T22:43:58.463Z,92611.75
2023-04-29T22:47:02.615Z,92606.28
2023-04-29T22:50:07.436Z,92604.41
2023-04-29T22:53:11.378Z,92614.31
2023-04-29T22:56:14.688Z,92598.56
2023-04-29T22:59:18.088Z,92607.19
2023-04-29T23:02:27.909Z,92606.50
2023-04-29T23:05:32.268Z,92602.56
2023-04-29T23:08:35.569Z,92599.28
2023-04-29T23:11:39.378Z,92593.75
2023-04-29T23:14:43.266Z,92593.34
2023-04-29T23:17:47.090Z,92584.28
2023-04-29T23:20:50.227Z,92586.44
2023-04-29T23:23:54.830Z,92573.00
2023-04-29T23:26:58.868Z,92571.34
2023-04-29T23:30:03.276Z,92585.16
2023-04-29T23:33:07.242Z,92582.31
2023-04-29T23:36:12.260Z,92579.00
2023-04-29T23:39:15.178Z,92575.09
2023-04-29T23:42:19.654Z,92569.50
2023-04-29T23:45:22.640Z,92560.31
2023-04-29T23:48:26.061Z,92561.22
2023-04-29T23:51:29.857Z,92568.22
2023-04-29T23:54:33.513Z,92553.81
2023-04-29T23:57:37.653Z,92546.09
